Time;durP1;ratioP1;P1;durP2;ratioP2;P2;SDS_P1;SDS_P2;PMS_P1;PMS_P2;Temp;Humidity;BMP_temperature;BMP_pressure;BME280_temperature;BME280_humidity;BME280_pressure;Samples;Min_cycle;Max_cycle;Signal;HPM_P1;HPM_P2
2022/11/12 00:01:03;;;;;;;15.07;11.27;;;6.90;99.90;;;;;;5034749;28;20675;-86
2022/11/12 00:03:47;;;;;;;18.37;11.57;;;6.90;99.90;;;;;;5034551;28;20204;-86
2022/11/12 00:06:32;;;;;;;16.87;11.53;;;6.90;99.90;;;;;;5015372;28;20214;-86
2022/11/12 00:09:17;;;;;;;17.00;12.03;;;6.90;99.90;;;;;;5014966;28;20253;-86
2022/11/12 00:12:01;;;;;;;16.67;11.93;;;6.90;99.90;;;;;;5014912;28;20213;-86
2022/11/12 00:14:46;;;;;;;17.30;12.20;;;6.90;99.90;;;;;;5014453;28;20276;-86
2022/11/12 00:17:30;;;;;;;16.73;11.63;;;6.90;99.90;;;;;;5014647;28;20181;-86
2022/11/12 00:20:15;;;;;;;14.83;10.83;;;6.90;99.90;;;;;;5014868;28;20216;-86
2022/11/12 00:23:00;;;;;;;15.50;11.67;;;6.90;99.90;;;;;;5014405;28;20282;-86
2022/11/12 00:25:44;;;;;;;17.50;12.23;;;6.90;99.90;;;;;;5013954;28;20210;-86
2022/11/12 00:28:29;;;;;;;14.40;10.43;;;6.90;99.90;;;;;;5014392;28;20239;-86
2022/11/12 00:31:13;;;;;;;15.53;11.03;;;6.90;99.90;;;;;;5014232;28;20193;-86
2022/11/12 00:33:58;;;;;;;16.03;11.00;;;6.90;99.90;;;;;;5027263;28;20276;-86
2022/11/12 00:36:43;;;;;;;14.97;10.63;;;6.90;99.90;;;;;;5034104;28;20175;-86
2022/11/12 00:39:27;;;;;;;17.33;11.67;;;6.90;99.90;;;;;;5033623;28;20239;-86
2022/11/12 00:42:12;;;;;;;15.73;11.03;;;6.90;99.90;;;;;;5033888;28;20246;-86
2022/11/12 00:44:57;;;;;;;17.90;11.97;;;6.90;99.90;;;;;;5033683;28;20227;-86
2022/11/12 00:47:41;;;;;;;16.90;11.87;;;6.90;99.90;;;;;;5032034;28;20181;-86
2022/11/12 00:50:28;;;;;;;18.20;11.67;;;6.90;99.90;;;;;;5033260;28;20253;-86
2022/11/12 00:53:13;;;;;;;20.77;12.30;;;6.90;99.90;;;;;;5033662;28;20189;-86
2022/11/12 00:56:05;;;;;;;19.97;12.43;;;6.90;99.90;;;;;;5033794;28;20216;-86
2022/11/12 00:58:49;;;;;;;18.67;12.33;;;6.80;99.90;;;;;;5033518;28;20204;-86
2022/11/12 01:01:34;;;;;;;19.47;13.27;;;6.80;99.90;;;;;;5032509;28;20185;-86
2022/11/12 01:04:18;;;;;;;19.77;13.03;;;6.80;99.90;;;;;;5033415;28;20712;-86
2022/11/12 01:07:03;;;;;;;15.97;11.47;;;6.90;99.90;;;;;;5034285;28;20180;-86
2022/11/12 01:09:48;;;;;;;27.47;14.83;;;6.90;99.90;;;;;;5047129;28;20212;-86
2022/11/12 01:12:32;;;;;;;17.83;13.07;;;6.80;99.90;;;;;;5047715;28;20258;-86
2022/11/12 01:15:20;;;;;;;18.20;12.53;;;6.80;99.90;;;;;;5047409;28;20209;-86
2022/11/12 01:18:04;;;;;;;20.87;13.73;;;6.80;99.90;;;;;;5034050;28;20252;-86
2022/11/12 01:20:54;;;;;;;21.23;13.13;;;6.90;99.90;;;;;;5047175;28;20194;-86
2022/11/12 01:23:42;;;;;;;17.80;12.07;;;6.80;99.90;;;;;;5047084;28;20228;-86
2022/11/12 01:26:30;;;;;;;18.13;13.13;;;6.80;99.90;;;;;;5047165;28;20169;-86
2022/11/12 01:29:14;;;;;;;19.80;14.03;;;6.80;99.90;;;;;;5047103;28;20299;-86
2022/11/12 01:31:59;;;;;;;19.37;13.43;;;6.80;99.90;;;;;;5046991;28;20177;-86
2022/11/12 01:34:43;;;;;;;20.57;11.87;;;6.80;99.90;;;;;;5040744;28;20229;-85
2022/11/12 01:37:28;;;;;;;16.83;11.73;;;6.80;99.90;;;;;;5013902;28;20228;-86
2022/11/12 01:40:13;;;;;;;32.03;13.67;;;6.80;99.90;;;;;;5013212;28;20173;-86
2022/11/12 01:42:58;;;;;;;18.17;12.03;;;6.80;99.90;;;;;;5013206;28;20169;-86
2022/11/12 01:45:46;;;;;;;15.93;11.10;;;6.70;99.90;;;;;;5012690;28;20233;-86
2022/11/12 01:48:39;;;;;;;19.17;11.27;;;6.70;99.90;;;;;;5012512;28;20186;-86
2022/11/12 01:51:29;;;;;;;14.43;10.73;;;6.70;99.90;;;;;;5026888;28;20212;-86
2022/11/12 01:54:15;;;;;;;14.40;10.70;;;6.70;99.90;;;;;;5013689;28;20236;-86
2022/11/12 01:57:01;;;;;;;16.23;11.37;;;6.70;99.90;;;;;;5012526;28;20206;-86
2022/11/12 01:59:48;;;;;;;15.37;10.57;;;6.70;99.90;;;;;;5017614;28;20244;-86
2022/11/12 02:02:35;;;;;;;19.10;11.67;;;6.70;99.90;;;;;;5032676;28;20213;-86
2022/11/12 02:05:20;;;;;;;14.00;10.27;;;6.60;99.90;;;;;;5032238;28;20218;-86
2022/11/12 02:08:06;;;;;;;18.50;11.60;;;6.60;99.90;;;;;;5046224;28;20174;-86
2022/11/12 02:10:50;;;;;;;27.07;11.77;;;6.60;99.90;;;;;;5046281;28;20193;-86
2022/11/12 02:16:40;;;;;;;15.90;10.80;;;6.50;99.90;;;;;;5033006;28;20216;-86
2022/11/12 02:19:25;;;;;;;37.37;11.43;;;6.50;99.90;;;;;;5032845;28;20284;-86
2022/11/12 02:22:09;;;;;;;22.47;11.80;;;6.50;99.90;;;;;;5032190;28;20187;-86
2022/11/12 02:24:54;;;;;;;19.10;11.47;;;6.40;99.90;;;;;;5031737;28;20215;-86
2022/11/12 02:27:38;;;;;;;21.07;11.53;;;6.40;99.90;;;;;;5031625;28;20324;-86
2022/11/12 02:30:44;;;;;;;16.30;10.53;;;6.40;99.90;;;;;;5031856;28;20227;-86
2022/11/12 02:33:28;;;;;;;21.17;12.37;;;6.40;99.90;;;;;;5031749;28;20196;-86
2022/11/12 02:36:13;;;;;;;17.83;11.40;;;6.40;99.90;;;;;;5032066;28;20248;-86
2022/11/12 02:38:58;;;;;;;17.23;10.73;;;6.40;99.90;;;;;;5045685;28;20294;-86
2022/11/12 02:42:13;;;;;;;23.50;11.33;;;6.40;99.90;;;;;;5045760;28;20168;-86
2022/11/12 02:44:57;;;;;;;17.40;10.40;;;6.30;99.90;;;;;;5046072;28;20502;-86
2022/11/12 02:47:42;;;;;;;13.13;9.57;;;6.40;99.90;;;;;;5045420;28;20212;-86
2022/11/12 02:50:42;;;;;;;12.27;8.83;;;6.30;99.90;;;;;;5045639;28;20181;-86
2022/11/12 02:53:27;;;;;;;14.27;9.07;;;6.30;99.90;;;;;;5031565;28;20222;-86
2022/11/12 02:56:11;;;;;;;16.93;9.47;;;6.20;99.90;;;;;;5045565;28;20696;-86
2022/11/12 02:58:55;;;;;;;10.37;8.40;;;6.20;99.90;;;;;;5031375;28;20204;-86
2022/11/12 03:01:40;;;;;;;13.20;8.60;;;6.10;99.90;;;;;;5031759;28;20176;-86
2022/11/12 03:04:24;;;;;;;14.10;8.87;;;6.10;99.90;;;;;;5031343;28;20296;-86
2022/11/12 03:07:09;;;;;;;14.90;10.50;;;6.10;99.90;;;;;;5032075;28;20187;-86
2022/11/12 03:09:54;;;;;;;13.37;9.57;;;6.10;99.90;;;;;;5031923;28;20171;-86
2022/11/12 03:12:38;;;;;;;13.07;9.43;;;6.10;99.90;;;;;;5031475;28;20231;-84
2022/11/12 03:15:23;;;;;;;16.90;10.13;;;6.00;99.90;;;;;;5031414;28;20207;-86
2022/11/12 03:18:08;;;;;;;14.33;8.97;;;6.00;99.90;;;;;;5031203;28;20208;-86
2022/11/12 03:20:52;;;;;;;13.70;9.13;;;6.00;99.90;;;;;;5031926;28;20172;-86
2022/11/12 03:23:37;;;;;;;13.63;8.80;;;6.00;99.90;;;;;;5031259;28;20206;-86
2022/11/12 03:26:21;;;;;;;12.37;9.53;;;6.10;99.90;;;;;;5035039;28;20183;-86
2022/11/12 03:29:06;;;;;;;12.97;8.50;;;6.10;99.90;;;;;;5035590;28;20280;-86
2022/11/12 03:31:51;;;;;;;12.57;8.90;;;6.10;99.90;;;;;;5035316;28;20176;-86
2022/11/12 03:34:35;;;;;;;10.37;7.70;;;6.10;99.90;;;;;;5036072;28;20224;-86
2022/11/12 03:37:20;;;;;;;12.00;8.03;;;6.10;99.90;;;;;;5049711;28;20179;-86
2022/11/12 03:40:05;;;;;;;16.43;8.43;;;6.00;99.90;;;;;;5049451;28;20259;-86
2022/11/12 03:42:51;;;;;;;10.13;7.43;;;6.00;99.90;;;;;;5035329;28;20184;-86
2022/11/12 03:45:35;;;;;;;17.50;8.50;;;6.00;99.90;;;;;;5035405;28;20212;-86
2022/11/12 03:48:20;;;;;;;16.27;8.50;;;6.00;99.90;;;;;;5036331;28;20205;-86
2022/11/12 03:51:05;;;;;;;12.33;8.17;;;5.90;99.90;;;;;;5035425;28;20201;-85
2022/11/12 03:53:49;;;;;;;8.17;6.70;;;5.80;99.90;;;;;;5036033;28;20210;-86
2022/11/12 03:56:34;;;;;;;11.43;7.47;;;5.80;99.90;;;;;;5035355;28;20176;-86
2022/11/12 03:59:18;;;;;;;11.03;7.33;;;5.80;99.90;;;;;;5035037;28;20205;-86
2022/11/12 04:02:03;;;;;;;12.63;6.73;;;5.80;99.90;;;;;;5035311;28;20172;-86
2022/11/12 04:08:36;;;;;;;12.27;7.47;;;5.80;99.90;;;;;;5035911;28;20181;-86
2022/11/12 04:11:26;;;;;;;9.00;6.87;;;5.80;99.90;;;;;;5035227;28;20210;-86
2022/11/12 04:14:11;;;;;;;10.40;7.43;;;5.80;99.90;;;;;;5048988;28;20257;-86
2022/11/12 04:23:02;;;;;;;10.33;6.87;;;5.80;99.90;;;;;;5035740;28;20235;-86
2022/11/12 04:31:52;;;;;;;8.70;6.87;;;5.80;99.90;;;;;;5035819;28;20171;-86
2022/11/12 04:34:37;;;;;;;8.27;6.33;;;5.70;99.90;;;;;;5019780;28;20227;-86
2022/11/12 04:37:24;;;;;;;13.20;6.60;;;5.70;99.90;;;;;;5047430;28;20182;-86
2022/11/12 04:46:27;;;;;;;10.30;6.97;;;5.60;99.90;;;;;;5033710;28;20241;-85
2022/11/12 04:49:12;;;;;;;9.27;7.13;;;5.60;99.90;;;;;;5034094;28;20253;-86
2022/11/12 04:52:05;;;;;;;10.13;7.30;;;5.60;99.90;;;;;;5034031;28;20210;-86
2022/11/12 04:54:51;;;;;;;8.07;6.67;;;5.60;99.90;;;;;;5033443;28;20255;-86
2022/11/12 04:57:36;;;;;;;11.53;7.20;;;5.60;99.90;;;;;;5033580;28;20210;-86
2022/11/12 05:00:20;;;;;;;26.67;7.80;;;5.70;99.90;;;;;;5033553;28;20173;-86
2022/11/12 05:03:04;;;;;;;8.07;6.53;;;5.70;99.90;;;;;;5033341;28;20285;-86
2022/11/12 05:05:49;;;;;;;21.13;7.77;;;5.70;99.90;;;;;;5033657;28;20271;-86
2022/11/12 05:08:33;;;;;;;9.67;6.30;;;5.70;99.90;;;;;;5033194;28;20185;-86
2022/11/12 05:11:17;;;;;;;17.90;7.90;;;5.70;99.90;;;;;;5034369;28;20172;-86
2022/11/12 05:14:02;;;;;;;8.87;7.13;;;5.60;99.90;;;;;;5047511;28;20227;-86
2022/11/12 05:16:47;;;;;;;18.37;7.73;;;5.60;99.90;;;;;;5046771;28;20187;-86
2022/11/12 05:19:33;;;;;;;10.40;6.97;;;5.70;99.90;;;;;;5033035;28;20221;-86
2022/11/12 05:22:18;;;;;;;13.00;7.50;;;5.70;99.90;;;;;;5013611;28;20173;-86
2022/11/12 05:25:03;;;;;;;11.90;6.73;;;5.60;99.90;;;;;;5014385;28;20207;-86
2022/11/12 05:27:47;;;;;;;18.07;7.43;;;5.60;99.90;;;;;;5012979;28;20257;-86
2022/11/12 05:30:32;;;;;;;12.00;7.17;;;5.60;99.90;;;;;;5013418;28;20749;-86
2022/11/12 05:33:16;;;;;;;13.03;6.80;;;5.60;99.90;;;;;;5013465;28;20317;-86
2022/11/12 05:36:01;;;;;;;14.43;7.77;;;5.70;99.90;;;;;;5029588;28;20276;-86
2022/11/12 05:38:45;;;;;;;17.00;7.10;;;5.70;99.90;;;;;;5032678;28;20215;-85
2022/11/12 05:41:29;;;;;;;25.90;8.30;;;5.70;99.90;;;;;;5047256;28;20271;-86
2022/11/12 05:44:14;;;;;;;8.33;6.30;;;5.70;99.90;;;;;;5033481;28;20223;-86
2022/11/12 05:46:59;;;;;;;8.93;7.00;;;5.70;99.90;;;;;;5046918;28;20296;-86
2022/11/12 05:49:43;;;;;;;17.17;7.30;;;5.70;99.90;;;;;;5046832;28;20711;-86
2022/11/12 05:52:27;;;;;;;10.60;7.33;;;5.70;99.90;;;;;;5032636;28;20647;-86
2022/11/12 05:55:12;;;;;;;8.70;6.40;;;5.70;99.90;;;;;;5032339;28;20216;-86
2022/11/12 05:57:56;;;;;;;21.17;7.13;;;5.60;99.90;;;;;;5032194;28;20199;-86
2022/11/12 06:00:41;;;;;;;10.13;7.20;;;5.60;99.90;;;;;;5032640;28;20255;-86
2022/11/12 06:03:25;;;;;;;19.50;7.20;;;5.60;99.90;;;;;;5032388;28;20186;-86
2022/11/12 06:06:10;;;;;;;9.07;7.07;;;5.60;99.90;;;;;;5032574;28;20191;-86
2022/11/12 06:08:54;;;;;;;9.27;6.67;;;5.60;99.90;;;;;;5046408;28;20180;-86
2022/11/12 06:11:39;;;;;;;11.13;7.47;;;5.60;99.90;;;;;;5032576;28;20172;-86
2022/11/12 06:14:23;;;;;;;12.07;7.40;;;5.60;99.90;;;;;;5032078;28;20271;-86
2022/11/12 06:17:08;;;;;;;22.83;7.83;;;5.60;99.90;;;;;;5046540;28;20183;-86
2022/11/12 06:19:52;;;;;;;18.90;7.67;;;5.60;99.90;;;;;;5046450;28;20301;-85
2022/11/12 06:22:36;;;;;;;21.70;7.60;;;5.60;99.90;;;;;;5032061;28;20218;-86
2022/11/12 06:25:21;;;;;;;15.73;8.00;;;5.60;99.90;;;;;;5032387;28;20212;-86
2022/11/12 06:28:05;;;;;;;11.67;7.40;;;5.60;99.90;;;;;;5013673;28;20189;-86
2022/11/12 06:30:49;;;;;;;16.53;7.53;;;5.60;99.90;;;;;;5013826;28;20585;-86
2022/11/12 06:33:34;;;;;;;11.30;7.13;;;5.50;99.90;;;;;;5012551;28;20213;-86
2022/11/12 06:36:19;;;;;;;8.17;6.70;;;5.60;99.90;;;;;;5031558;28;20213;-86
2022/11/12 06:39:04;;;;;;;11.30;6.60;;;5.60;99.90;;;;;;5046386;28;20553;-86
2022/11/12 06:41:48;;;;;;;11.73;6.80;;;5.50;99.90;;;;;;5046202;28;20178;-86
2022/11/12 06:44:32;;;;;;;26.27;13.73;;;5.50;99.90;;;;;;5046248;28;20284;-86
2022/11/12 06:47:17;;;;;;;34.67;19.40;;;5.60;99.90;;;;;;5046271;28;20171;-86
2022/11/12 06:50:01;;;;;;;16.43;9.37;;;5.60;99.90;;;;;;5046218;28;20177;-86
2022/11/12 06:52:46;;;;;;;15.50;7.80;;;5.60;99.90;;;;;;5046496;28;20710;-86
2022/11/12 06:55:30;;;;;;;9.00;7.00;;;5.70;99.90;;;;;;5032958;28;20221;-86
2022/11/12 06:58:15;;;;;;;12.33;6.57;;;5.60;99.90;;;;;;5045902;28;20172;-85
2022/11/12 07:01:11;;;;;;;7.83;5.93;;;5.60;99.90;;;;;;5049031;28;20207;-86
2022/11/12 07:03:55;;;;;;;8.33;5.57;;;5.60;99.90;;;;;;5018825;28;20213;-86
2022/11/12 07:06:40;;;;;;;7.80;5.90;;;5.60;99.90;;;;;;5016271;28;20213;-86
2022/11/12 07:09:25;;;;;;;9.00;6.63;;;5.60;99.90;;;;;;5044584;28;20181;-86
2022/11/12 07:12:09;;;;;;;9.63;5.73;;;5.50;99.90;;;;;;5016609;28;20219;-86
2022/11/12 07:14:55;;;;;;;7.97;6.40;;;5.50;99.90;;;;;;5016419;28;20255;-84
2022/11/12 07:17:44;;;;;;;14.63;5.97;;;5.50;99.90;;;;;;5029510;28;20194;-88
2022/11/12 07:20:47;;;;;;;7.93;6.00;;;5.60;99.90;;;;;;5036353;28;20197;-88
2022/11/12 07:23:34;;;;;;;8.97;6.40;;;5.60;99.90;;;;;;5035756;28;20206;-87
2022/11/12 07:26:24;;;;;;;13.43;7.03;;;5.60;99.90;;;;;;5035839;28;20173;-87
2022/11/12 07:29:09;;;;;;;14.80;9.07;;;5.60;99.90;;;;;;5035261;28;20205;-87
2022/11/12 07:31:53;;;;;;;9.73;7.40;;;5.60;99.90;;;;;;5035703;28;20197;-87
2022/11/12 07:34:38;;;;;;;8.97;6.93;;;5.60;99.90;;;;;;5035753;28;20216;-87
2022/11/12 07:37:22;;;;;;;18.60;6.03;;;5.60;99.90;;;;;;5049541;28;20267;-87
2022/11/12 07:40:07;;;;;;;7.23;5.90;;;5.60;99.90;;;;;;5036543;28;20289;-87
2022/11/12 07:42:51;;;;;;;7.10;5.63;;;5.60;99.90;;;;;;5036578;28;20167;-86
2022/11/12 07:45:38;;;;;;;6.80;5.77;;;5.60;99.90;;;;;;5049661;28;20199;-87
2022/11/12 07:48:23;;;;;;;8.70;6.20;;;5.70;99.90;;;;;;5049730;28;20176;-87
2022/11/12 07:51:19;;;;;;;10.80;6.83;;;5.70;99.90;;;;;;5049755;28;20226;-87
2022/11/12 07:54:04;;;;;;;6.17;5.37;;;5.70;99.90;;;;;;5035075;28;20268;-87
2022/11/12 07:56:48;;;;;;;7.00;5.40;;;5.80;99.90;;;;;;5035041;28;20226;-87
2022/11/12 07:59:32;;;;;;;8.13;5.80;;;5.80;99.90;;;;;;5035163;28;20204;-87
2022/11/12 08:02:17;;;;;;;7.07;5.63;;;5.80;99.90;;;;;;5035145;28;20175;-86
2022/11/12 08:05:01;;;;;;;7.03;5.80;;;5.80;99.90;;;;;;5035821;28;20246;-86
2022/11/12 08:07:46;;;;;;;7.10;5.77;;;5.80;99.90;;;;;;5034685;28;20173;-87
2022/11/12 08:10:30;;;;;;;12.57;8.17;;;5.90;99.90;;;;;;5034691;28;20212;-87
2022/11/12 08:13:15;;;;;;;8.93;5.50;;;6.00;99.90;;;;;;5035224;28;20228;-87
2022/11/12 08:16:00;;;;;;;4.87;4.10;;;5.90;99.90;;;;;;5035375;28;20184;-87
2022/11/12 08:18:45;;;;;;;6.63;4.60;;;5.90;99.90;;;;;;5034712;28;20219;-87
2022/11/12 08:21:33;;;;;;;4.97;4.43;;;5.90;99.90;;;;;;5034806;28;20189;-87
2022/11/12 08:24:17;;;;;;;7.00;5.50;;;5.90;99.90;;;;;;5035068;28;20316;-86
2022/11/12 08:27:02;;;;;;;6.87;5.63;;;5.90;99.90;;;;;;5034672;28;20195;-86
2022/11/12 08:29:47;;;;;;;7.43;5.63;;;5.90;99.90;;;;;;5035684;28;20197;-86
2022/11/12 08:32:31;;;;;;;7.50;5.87;;;6.00;99.90;;;;;;5035730;28;20236;-87
2022/11/12 08:35:15;;;;;;;11.67;7.10;;;6.00;99.90;;;;;;5034532;28;20220;-87
2022/11/12 08:38:03;;;;;;;11.37;7.07;;;6.10;99.90;;;;;;5048243;28;20324;-87
2022/11/12 08:40:47;;;;;;;9.90;6.57;;;6.10;99.90;;;;;;5048395;28;20180;-86
2022/11/12 08:43:33;;;;;;;12.13;7.10;;;6.20;99.90;;;;;;5048230;28;20166;-87
2022/11/12 08:46:17;;;;;;;7.07;5.60;;;6.10;99.90;;;;;;5035255;28;20221;-86
2022/11/12 08:49:01;;;;;;;9.20;6.37;;;6.10;99.90;;;;;;5048250;28;20223;-87
2022/11/12 08:51:46;;;;;;;6.83;5.47;;;6.10;99.90;;;;;;5035203;28;20261;-86
2022/11/12 08:54:30;;;;;;;8.03;6.30;;;6.00;99.90;;;;;;5048078;28;20208;-87
2022/11/12 08:57:14;;;;;;;5.97;5.33;;;6.10;99.90;;;;;;5047865;28;20192;-84
2022/11/12 08:59:58;;;;;;;6.77;5.03;;;6.00;99.90;;;;;;5048554;28;20213;-86
2022/11/12 09:02:43;;;;;;;10.80;5.67;;;6.10;99.90;;;;;;5030828;28;20189;-88
2022/11/12 09:05:28;;;;;;;6.03;5.00;;;6.10;99.90;;;;;;5014704;28;20206;-87
2022/11/12 09:08:15;;;;;;;9.50;5.47;;;6.10;99.90;;;;;;5028316;28;20209;-87
2022/11/12 09:11:00;;;;;;;8.70;5.73;;;6.10;99.90;;;;;;5042700;28;20213;-88
2022/11/12 09:13:44;;;;;;;7.67;5.17;;;6.00;99.90;;;;;;5053767;28;20269;-87
2022/11/12 09:16:29;;;;;;;8.90;6.13;;;6.10;99.90;;;;;;5053852;28;20188;-86
2022/11/12 09:19:13;;;;;;;7.17;5.10;;;6.10;99.90;;;;;;5053836;28;20199;-87
2022/11/12 09:21:58;;;;;;;7.57;6.23;;;6.30;99.90;;;;;;5053307;28;20193;-87
2022/11/12 09:24:42;;;;;;;8.50;6.13;;;6.30;99.90;;;;;;5054416;28;20347;-87
2022/11/12 09:27:30;;;;;;;12.83;7.17;;;6.40;99.90;;;;;;5047461;28;20195;-87
2022/11/12 09:30:14;;;;;;;7.00;5.70;;;6.40;99.90;;;;;;5038003;28;20179;-86
2022/11/12 09:33:05;;;;;;;6.17;5.37;;;6.40;99.90;;;;;;5035676;28;20228;-87
2022/11/12 09:35:51;;;;;;;6.80;5.53;;;6.40;99.90;;;;;;5033294;28;20197;-87
2022/11/12 09:38:35;;;;;;;6.67;5.40;;;6.40;99.90;;;;;;5032836;28;20207;-87
2022/11/12 09:41:35;;;;;;;8.83;6.43;;;6.40;99.90;;;;;;5031566;28;20188;-87
2022/11/12 09:44:23;;;;;;;6.40;5.60;;;6.50;99.90;;;;;;5030415;28;20256;-87
2022/11/12 09:47:27;;;;;;;6.90;5.63;;;6.50;99.90;;;;;;5012472;28;20174;-87
2022/11/12 09:50:27;;;;;;;5.73;4.83;;;6.50;99.90;;;;;;5030545;28;20157;-87
2022/11/12 09:53:17;;;;;;;8.43;5.70;;;6.60;99.90;;;;;;5048916;28;20213;-87
2022/11/12 09:56:07;;;;;;;6.33;5.60;;;6.70;99.90;;;;;;5044592;28;20202;-87
2022/11/12 09:58:52;;;;;;;6.70;6.00;;;6.60;99.90;;;;;;5033149;28;20208;-87
2022/11/12 10:02:25;;;;;;;6.50;4.60;;;6.70;99.90;;;;;;5034162;28;20165;-86
2022/11/12 10:05:18;;;;;;;5.57;4.93;;;6.70;99.90;;;;;;5020026;28;20243;-86
2022/11/12 10:08:40;;;;;;;7.27;5.83;;;6.80;99.90;;;;;;5046957;28;20219;-86
2022/11/12 10:18:35;;;;;;;8.87;6.50;;;6.90;99.90;;;;;;5033642;28;20196;-87
2022/11/12 10:21:53;;;;;;;13.47;8.17;;;7.00;99.90;;;;;;5046986;28;20179;-87
2022/11/12 10:24:40;;;;;;;11.07;8.33;;;7.00;99.90;;;;;;5026401;28;20244;-87
2022/11/12 10:27:35;;;;;;;11.60;7.87;;;7.00;99.90;;;;;;5026601;28;20189;-87
2022/11/12 10:30:22;;;;;;;11.47;8.77;;;7.20;99.90;;;;;;5026798;28;20201;-86
2022/11/12 10:33:13;;;;;;;18.60;12.80;;;7.30;99.90;;;;;;5031939;28;20236;-86
2022/11/12 10:36:23;;;;;;;14.20;10.40;;;7.40;99.90;;;;;;5032101;28;20252;-87
2022/11/12 10:39:07;;;;;;;10.53;8.30;;;7.60;99.90;;;;;;5016912;28;20229;-86
2022/11/12 10:42:11;;;;;;;10.03;7.93;;;7.70;99.90;;;;;;5032390;28;20220;-86
2022/11/12 10:45:23;;;;;;;8.37;6.77;;;7.90;99.90;;;;;;5032319;28;20197;-87
2022/11/12 10:48:20;;;;;;;9.77;6.83;;;8.00;99.90;;;;;;5032071;28;20174;-87
2022/11/12 10:51:20;;;;;;;9.57;7.37;;;8.30;99.90;;;;;;5032120;28;20170;-87
2022/11/12 10:54:36;;;;;;;7.97;6.77;;;8.40;99.90;;;;;;5032038;28;20285;-86
2022/11/12 10:57:20;;;;;;;7.83;6.57;;;8.50;99.90;;;;;;5031582;28;20190;-87
2022/11/12 11:00:25;;;;;;;7.27;6.10;;;8.60;99.90;;;;;;5032072;28;20219;-86
2022/11/12 11:03:23;;;;;;;6.50;5.70;;;8.80;99.90;;;;;;5031307;28;20197;-87
2022/11/12 11:06:14;;;;;;;6.40;5.80;;;8.90;99.90;;;;;;5020291;28;20194;-87
2022/11/12 11:09:20;;;;;;;6.87;6.03;;;8.70;99.90;;;;;;5030363;28;20182;-87
2022/11/12 11:12:32;;;;;;;7.00;5.40;;;8.70;99.90;;;;;;5032230;28;20204;-86
2022/11/12 11:15:26;;;;;;;9.10;7.00;;;8.90;99.90;;;;;;5031976;28;20210;-87
2022/11/12 11:18:13;;;;;;;8.53;7.03;;;8.90;99.90;;;;;;5032156;28;20209;-86
2022/11/12 11:24:30;;;;;;;9.10;6.93;;;9.00;99.90;;;;;;5032827;28;20226;-87
2022/11/12 11:27:53;;;;;;;8.63;7.10;;;9.20;99.90;;;;;;5031579;28;20209;-87
2022/11/12 11:30:48;;;;;;;8.00;6.77;;;9.20;99.90;;;;;;5031979;28;20170;-87
2022/11/12 11:33:52;;;;;;;7.70;6.57;;;9.10;99.90;;;;;;5031695;28;20674;-88
2022/11/12 11:36:58;;;;;;;7.37;6.00;;;9.30;99.90;;;;;;5015147;28;20182;-89
2022/11/12 11:40:08;;;;;;;7.57;5.87;;;9.30;99.90;;;;;;5031665;28;20230;-88
2022/11/12 11:42:55;;;;;;;7.27;5.90;;;9.50;99.90;;;;;;5032227;28;20205;-88
2022/11/12 11:46:04;;;;;;;7.93;6.10;;;9.60;99.90;;;;;;5032468;28;20202;-88
2022/11/12 11:49:07;;;;;;;7.30;6.00;;;9.70;99.90;;;;;;5035717;28;20186;-88
2022/11/12 11:52:17;;;;;;;7.27;5.63;;;9.70;99.90;;;;;;5035444;28;20173;-89
2022/11/12 11:55:17;;;;;;;8.23;5.90;;;9.60;99.90;;;;;;5035177;28;20206;-88
2022/11/12 11:58:35;;;;;;;6.77;5.77;;;9.60;99.90;;;;;;5035031;28;20169;-89
2022/11/12 12:01:53;;;;;;;6.67;5.27;;;9.60;99.90;;;;;;5035633;28;20650;-88
2022/11/12 12:05:00;;;;;;;6.27;5.37;;;9.70;99.90;;;;;;5012181;28;20226;-89
2022/11/12 12:08:10;;;;;;;6.27;5.40;;;9.90;99.90;;;;;;5029307;28;20273;-88
2022/11/12 12:11:20;;;;;;;6.03;4.87;;;9.90;99.90;;;;;;5034963;28;20209;-88
2022/11/12 12:14:19;;;;;;;5.70;5.03;;;10.00;99.90;;;;;;5035380;28;20229;-88
2022/11/12 12:17:24;;;;;;;5.30;4.80;;;10.20;99.90;;;;;;5034988;28;20174;-88
2022/11/12 12:20:20;;;;;;;5.10;4.60;;;10.30;99.90;;;;;;5034930;28;20248;-88
2022/11/12 12:23:17;;;;;;;5.37;4.87;;;10.40;99.90;;;;;;5034755;28;20182;-89
2022/11/12 12:26:10;;;;;;;5.33;4.83;;;10.50;99.90;;;;;;5035086;28;20198;-88
2022/11/12 12:29:03;;;;;;;5.43;4.93;;;10.60;99.90;;;;;;5034681;28;20237;-89
2022/11/12 12:32:05;;;;;;;6.07;5.47;;;10.60;99.90;;;;;;5035865;28;20217;-89
2022/11/12 12:35:42;;;;;;;9.47;6.57;;;10.60;99.90;;;;;;5034399;28;20270;-88
2022/11/12 12:38:37;;;;;;;6.83;6.03;;;10.70;99.90;;;;;;5030413;28;20205;-88
2022/11/12 12:42:01;;;;;;;6.37;5.63;;;10.70;99.90;;;;;;5034762;28;20190;-88
2022/11/12 12:44:59;;;;;;;6.33;5.30;;;10.70;99.90;;;;;;5048178;28;20211;-89
2022/11/12 12:47:47;;;;;;;7.27;6.07;;;10.80;99.90;;;;;;5032958;28;20233;-89
2022/11/12 12:50:32;;;;;;;9.93;7.30;;;10.90;99.90;;;;;;5034587;28;20175;-89
2022/11/12 12:53:26;;;;;;;7.57;6.40;;;11.00;99.90;;;;;;5027923;28;20223;-89
2022/11/12 12:56:14;;;;;;;7.40;5.87;;;11.00;99.90;;;;;;5034299;28;20180;-88
2022/11/12 12:59:02;;;;;;;6.73;6.03;;;11.20;99.90;;;;;;5032990;28;20321;-88
2022/11/12 13:02:01;;;;;;;6.53;5.60;;;11.20;99.90;;;;;;5034262;28;20218;-88
2022/11/12 13:04:55;;;;;;;6.37;5.47;;;11.20;99.90;;;;;;5034873;28;20226;-88
2022/11/12 13:07:59;;;;;;;7.50;5.57;;;11.20;99.90;;;;;;5048206;28;20175;-88
2022/11/12 13:10:47;;;;;;;6.77;5.33;;;11.30;99.90;;;;;;5048051;28;20208;-88
2022/11/12 13:13:36;;;;;;;6.50;5.77;;;11.30;99.90;;;;;;5047701;28;20224;-88
2022/11/12 13:16:50;;;;;;;5.53;4.90;;;11.40;99.90;;;;;;5034015;28;20203;-88
2022/11/12 13:19:57;;;;;;;7.23;5.40;;;11.30;99.90;;;;;;5033570;28;20204;-88
2022/11/12 13:22:42;;;;;;;6.70;5.60;;;11.40;99.90;;;;;;5061250;28;20266;-88
2022/11/12 13:25:31;;;;;;;7.07;5.70;;;11.40;99.90;;;;;;5029690;28;20227;-89
2022/11/12 13:28:17;;;;;;;6.80;6.10;;;11.40;99.90;;;;;;5018847;28;20270;-89
2022/11/12 13:31:03;;;;;;;6.67;5.53;;;11.40;99.90;;;;;;5030290;28;20186;-89
2022/11/12 13:33:48;;;;;;;5.77;5.13;;;11.40;99.90;;;;;;5027301;28;20208;-89
2022/11/12 13:36:32;;;;;;;7.13;5.70;;;11.30;99.90;;;;;;5028856;28;20188;-90
2022/11/12 13:39:19;;;;;;;6.07;5.47;;;11.30;99.90;;;;;;5033338;28;20266;-89
2022/11/12 13:45:26;;;;;;;8.07;7.00;;;11.30;99.90;;;;;;5028558;28;20206;-89
2022/11/12 13:48:36;;;;;;;6.67;5.70;;;11.20;99.90;;;;;;5016336;28;20181;-89
2022/11/12 13:51:41;;;;;;;6.80;5.60;;;11.20;99.90;;;;;;5013536;28;20185;-88
2022/11/12 13:54:26;;;;;;;5.90;5.40;;;11.20;99.90;;;;;;5013617;28;20225;-82
2022/11/12 13:57:23;;;;;;;6.30;5.23;;;11.20;99.90;;;;;;5016532;28;20189;-85
2022/11/12 14:00:27;;;;;;;6.10;5.50;;;11.10;99.90;;;;;;5032701;28;20211;-88
2022/11/12 14:03:17;;;;;;;6.10;5.50;;;11.20;99.90;;;;;;5030220;28;20169;-88
2022/11/12 14:06:25;;;;;;;5.33;4.50;;;11.10;99.90;;;;;;5029650;28;20550;-88
2022/11/12 14:09:22;;;;;;;6.03;4.83;;;11.10;99.90;;;;;;5049492;28;20723;-88
2022/11/12 14:12:26;;;;;;;9.37;6.13;;;11.10;99.90;;;;;;5032454;28;20665;-88
2022/11/12 14:15:49;;;;;;;6.90;5.60;;;11.10;99.90;;;;;;5026638;28;20275;-88
2022/11/12 14:18:38;;;;;;;9.40;5.50;;;11.00;99.90;;;;;;5028971;28;20210;-87
2022/11/12 14:21:30;;;;;;;5.80;5.20;;;11.00;99.90;;;;;;5017480;28;20393;-86
2022/11/12 14:24:15;;;;;;;6.63;5.50;;;11.00;99.90;;;;;;5031067;28;20286;-87
2022/11/12 14:26:59;;;;;;;6.33;5.73;;;10.90;99.90;;;;;;5042172;28;20271;-88
2022/11/12 14:29:44;;;;;;;6.10;5.10;;;10.90;99.90;;;;;;5033907;28;20238;-87
2022/11/12 14:32:36;;;;;;;6.50;5.10;;;10.90;99.90;;;;;;5014457;28;20171;-87
2022/11/12 14:35:24;;;;;;;5.10;4.60;;;10.90;99.90;;;;;;5026751;28;20278;-86
2022/11/12 14:38:08;;;;;;;5.40;4.90;;;10.90;99.90;;;;;;5046403;28;20216;-81
2022/11/12 14:40:55;;;;;;;7.03;6.33;;;10.80;99.90;;;;;;5046229;28;20175;-87
2022/11/12 14:43:41;;;;;;;7.60;5.90;;;10.80;99.90;;;;;;5056443;28;20179;-82
2022/11/12 14:46:47;;;;;;;7.27;6.23;;;10.70;99.90;;;;;;5052988;28;20168;-89
2022/11/12 14:49:38;;;;;;;9.10;6.53;;;10.70;99.90;;;;;;5052532;28;20226;-83
2022/11/12 14:52:32;;;;;;;8.90;5.70;;;10.60;99.90;;;;;;5051799;28;20177;-88
2022/11/12 14:55:20;;;;;;;6.90;5.80;;;10.60;99.90;;;;;;5051778;28;20287;-88
2022/11/12 14:58:05;;;;;;;6.93;5.53;;;10.50;99.90;;;;;;5052412;28;20238;-88
2022/11/12 15:00:52;;;;;;;5.47;4.57;;;10.50;99.90;;;;;;5053318;28;20172;-88
2022/11/12 15:03:36;;;;;;;8.70;5.57;;;10.40;99.90;;;;;;5036505;28;20274;-88
2022/11/12 15:06:30;;;;;;;7.37;5.40;;;10.40;99.90;;;;;;5044158;28;20204;-88
2022/11/12 15:09:20;;;;;;;7.87;5.97;;;10.30;99.90;;;;;;5032309;28;20184;-87
2022/11/12 15:12:10;;;;;;;7.57;5.87;;;10.20;99.90;;;;;;5032866;28;20545;-86
2022/11/12 15:15:17;;;;;;;7.37;6.40;;;10.20;99.90;;;;;;5032275;28;20734;-86
2022/11/12 15:18:24;;;;;;;5.97;5.37;;;10.20;99.90;;;;;;5031690;28;20183;-89
2022/11/12 15:21:26;;;;;;;5.80;5.20;;;10.10;99.90;;;;;;5033340;28;20221;-89
2022/11/12 15:24:35;;;;;;;6.87;5.13;;;10.10;99.90;;;;;;5035074;28;20290;-88